Time;durP1;ratioP1;P1;durP2;ratioP2;P2;SDS_P1;SDS_P2;PMS_P1;PMS_P2;Temp;Humidity;BMP_temperature;BMP_pressure;BME280_temperature;BME280_humidity;BME280_pressure;Samples;Min_cycle;Max_cycle;Signal;HPM_P1;HPM_P2
2021/12/13 00:02:03;;;;;;;110.13;33.10;;;10.40;99.90;;;;;;4942410;28;20125;-66
2021/12/13 00:04:37;;;;;;;111.28;33.40;;;10.40;99.90;;;;;;4956096;28;20074;-66
2021/12/13 00:07:17;;;;;;;116.50;34.50;;;10.40;99.90;;;;;;4946981;28;20078;-66
2021/12/13 00:09:45;;;;;;;115.43;35.75;;;10.50;99.90;;;;;;4956491;28;20295;-66
2021/12/13 00:12:18;;;;;;;115.70;35.83;;;10.40;99.90;;;;;;4964481;28;20487;-66
2021/12/13 00:14:51;;;;;;;123.15;34.85;;;10.40;99.90;;;;;;4955096;28;20399;-66
2021/12/13 00:17:29;;;;;;;121.10;35.85;;;10.40;99.90;;;;;;4964390;28;20027;-66
2021/12/13 00:20:26;;;;;;;107.57;34.60;;;10.40;99.90;;;;;;4953647;28;20408;-66
2021/12/13 00:22:54;;;;;;;117.00;36.90;;;10.40;99.90;;;;;;4959909;28;20065;-66
2021/12/13 00:25:23;;;;;;;96.43;32.92;;;10.40;99.90;;;;;;4943570;28;20090;-66
2021/12/13 00:27:54;;;;;;;110.43;33.83;;;10.50;99.90;;;;;;4960621;28;20031;-66
2021/12/13 00:30:25;;;;;;;89.03;32.55;;;10.40;99.90;;;;;;4959360;28;20039;-66
2021/12/13 00:33:15;;;;;;;114.82;34.58;;;10.40;99.90;;;;;;4964363;28;20094;-66
2021/12/13 00:36:05;;;;;;;109.18;34.72;;;10.50;99.90;;;;;;4957244;28;20050;-66
2021/12/13 00:38:37;;;;;;;119.38;36.00;;;10.40;99.90;;;;;;4953185;28;20050;-66
2021/12/13 00:41:13;;;;;;;124.75;36.70;;;10.40;99.90;;;;;;4957226;28;20045;-66
2021/12/13 00:43:54;;;;;;;135.95;38.88;;;10.50;99.90;;;;;;4964464;28;20046;-66
2021/12/13 00:46:24;;;;;;;125.60;36.70;;;10.40;99.90;;;;;;4959050;28;20063;-66
2021/12/13 00:48:54;;;;;;;108.53;35.65;;;10.50;99.90;;;;;;4961036;28;20068;-66
2021/12/13 00:51:27;;;;;;;119.80;36.63;;;10.50;99.90;;;;;;4960094;28;20558;-66
2021/12/13 00:53:57;;;;;;;118.72;35.97;;;10.50;99.90;;;;;;4965373;28;20387;-66
2021/12/13 00:56:54;;;;;;;128.48;37.22;;;10.50;99.90;;;;;;4956175;28;20081;-66
2021/12/13 00:59:31;;;;;;;84.63;29.98;;;10.50;99.90;;;;;;4943588;28;20049;-66
2021/12/13 01:02:02;;;;;;;106.35;32.92;;;10.50;99.90;;;;;;4938371;28;20489;-66
2021/12/13 01:05:07;;;;;;;95.95;31.25;;;10.50;99.90;;;;;;4965598;28;20042;-66
2021/12/13 01:07:33;;;;;;;82.85;29.70;;;10.50;99.90;;;;;;4944800;28;20043;-66
2021/12/13 01:10:36;;;;;;;73.88;27.33;;;10.50;99.90;;;;;;4946654;28;20102;-67
2021/12/13 01:13:05;;;;;;;67.55;26.90;;;10.50;99.90;;;;;;4962284;28;20399;-66
2021/12/13 01:15:48;;;;;;;72.47;27.65;;;10.50;99.90;;;;;;4945299;28;20046;-67
2021/12/13 01:18:30;;;;;;;62.42;26.83;;;10.50;99.90;;;;;;4961474;28;20077;-67
2021/12/13 01:21:16;;;;;;;78.88;27.95;;;10.50;99.90;;;;;;4956778;28;20050;-67
2021/12/13 01:23:51;;;;;;;65.72;26.95;;;10.50;99.90;;;;;;4947003;28;20047;-67
2021/12/13 01:26:36;;;;;;;78.07;29.20;;;10.50;99.90;;;;;;4954728;28;20047;-67
2021/12/13 01:29:14;;;;;;;74.15;28.02;;;10.50;99.90;;;;;;4961740;28;20034;-67
2021/12/13 01:31:53;;;;;;;74.60;29.95;;;10.50;99.90;;;;;;4959766;28;20066;-67
2021/12/13 01:34:23;;;;;;;72.15;27.77;;;10.50;99.90;;;;;;4964798;28;20034;-67
2021/12/13 01:37:09;;;;;;;70.32;27.35;;;10.50;99.90;;;;;;4956956;28;20031;-67
2021/12/13 01:39:38;;;;;;;48.80;24.45;;;10.50;99.90;;;;;;4963815;28;20042;-67
2021/12/13 01:42:11;;;;;;;51.67;23.58;;;10.50;99.90;;;;;;4942252;28;20047;-67
2021/12/13 01:44:43;;;;;;;51.50;23.92;;;10.50;99.90;;;;;;4961836;28;20046;-67
2021/12/13 01:47:14;;;;;;;58.08;24.52;;;10.50;99.90;;;;;;4954156;28;20657;-67
2021/12/13 01:49:44;;;;;;;57.47;25.15;;;10.50;99.90;;;;;;4965713;28;20109;-67
2021/12/13 01:52:20;;;;;;;54.40;25.10;;;10.50;99.90;;;;;;4938771;28;20069;-67
2021/12/13 01:54:47;;;;;;;61.72;26.65;;;10.50;99.90;;;;;;4945702;28;20051;-67
2021/12/13 01:59:55;;;;;;;68.70;28.75;;;10.50;99.90;;;;;;4944853;28;20133;-67
2021/12/13 02:02:40;;;;;;;58.67;27.40;;;10.50;99.90;;;;;;4959797;28;20038;-67
2021/12/13 02:05:13;;;;;;;65.72;28.48;;;10.50;99.90;;;;;;4960975;28;20081;-67
2021/12/13 02:07:59;;;;;;;66.50;27.70;;;10.40;99.90;;;;;;4957882;28;20043;-67
2021/12/13 02:10:53;;;;;;;56.78;26.15;;;10.50;99.90;;;;;;4957352;28;20046;-67
2021/12/13 02:13:33;;;;;;;68.90;28.35;;;10.50;99.90;;;;;;4938760;28;20542;-67
2021/12/13 02:18:52;;;;;;;63.17;26.58;;;10.50;99.90;;;;;;4953745;28;20419;-67
2021/12/13 02:21:35;;;;;;;58.22;25.60;;;10.40;99.90;;;;;;4960778;28;20075;-67
2021/12/13 02:24:10;;;;;;;59.22;26.98;;;10.40;99.90;;;;;;4954634;28;20384;-67
2021/12/13 02:26:41;;;;;;;62.45;26.70;;;10.40;99.90;;;;;;4964632;28;20122;-67
2021/12/13 02:29:17;;;;;;;61.88;25.95;;;10.40;99.90;;;;;;4956904;28;20043;-67
2021/12/13 02:31:44;;;;;;;60.22;26.92;;;10.40;99.90;;;;;;4951552;28;20114;-67
2021/12/13 02:34:13;;;;;;;62.75;27.02;;;10.40;99.90;;;;;;4957710;28;20406;-67
2021/12/13 02:36:48;;;;;;;55.15;27.38;;;10.40;99.90;;;;;;4960333;28;20101;-67
2021/12/13 02:39:20;;;;;;;64.00;27.38;;;10.40;99.90;;;;;;4934463;28;20117;-67
2021/12/13 02:41:46;;;;;;;55.08;26.02;;;10.40;99.90;;;;;;4948500;28;20568;-67
2021/12/13 02:44:23;;;;;;;83.18;30.17;;;10.40;99.90;;;;;;4941334;28;20042;-66
2021/12/13 02:46:50;;;;;;;58.95;27.02;;;10.40;99.90;;;;;;4943104;28;20051;-66
2021/12/13 02:49:17;;;;;;;52.22;26.58;;;10.40;99.90;;;;;;4945227;28;20051;-67
2021/12/13 02:51:49;;;;;;;68.53;28.88;;;10.40;99.90;;;;;;4961656;28;20057;-67
2021/12/13 02:54:24;;;;;;;54.65;26.95;;;10.40;99.90;;;;;;4964116;28;20505;-67
2021/12/13 02:56:52;;;;;;;;;;;10.40;99.90;;;;;;4954919;28;20249;-67
2021/12/13 02:59:20;;;;;;;49.05;24.00;;;10.30;99.90;;;;;;4964120;28;19918;-66
2021/12/13 03:02:13;;;;;;;52.75;26.08;;;10.30;99.90;;;;;;4957051;28;20042;-66
2021/12/13 03:04:40;;;;;;;55.30;26.05;;;10.30;99.90;;;;;;4959763;28;20533;-66
2021/12/13 03:07:18;;;;;;;50.63;24.48;;;10.30;99.90;;;;;;4950593;28;20027;-66
2021/12/13 03:09:48;;;;;;;42.22;23.25;;;10.30;99.90;;;;;;4958418;28;20039;-66
2021/12/13 03:12:16;;;;;;;50.70;23.52;;;10.30;99.90;;;;;;4953655;28;20125;-66
2021/12/13 03:14:47;;;;;;;49.10;24.38;;;10.30;99.90;;;;;;4959913;28;20063;-67
2021/12/13 03:17:36;;;;;;;43.08;23.05;;;10.30;99.90;;;;;;4943519;28;20046;-67
2021/12/13 03:20:14;;;;;;;43.67;21.58;;;10.30;99.90;;;;;;4937909;28;20067;-66
2021/12/13 03:23:21;;;;;;;39.15;21.17;;;10.30;99.90;;;;;;4953346;28;20055;-66
2021/12/13 03:26:14;;;;;;;35.28;20.95;;;10.20;99.90;;;;;;4954689;28;20112;-66
2021/12/13 03:29:26;;;;;;;47.17;20.50;;;10.20;99.90;;;;;;4931375;28;20050;-66
2021/12/13 03:31:57;;;;;;;39.95;19.55;;;10.20;99.90;;;;;;4933003;28;20454;-66
2021/12/13 03:34:31;;;;;;;35.30;19.63;;;10.20;99.90;;;;;;4962404;28;20039;-71
2021/12/13 03:37:29;;;;;;;32.65;16.88;;;10.10;99.90;;;;;;4956291;28;20101;-66
2021/12/13 03:39:59;;;;;;;29.05;16.95;;;10.10;99.90;;;;;;4962405;28;20054;-66
2021/12/13 03:42:46;;;;;;;27.63;16.10;;;10.00;99.90;;;;;;4959318;28;20046;-66
2021/12/13 03:45:23;;;;;;;24.83;14.50;;;10.00;99.90;;;;;;4967600;28;20042;-66
2021/12/13 03:47:52;;;;;;;30.65;14.85;;;10.00;99.90;;;;;;4961788;28;20376;-66
2021/12/13 03:50:21;;;;;;;22.83;14.27;;;9.90;99.90;;;;;;4947047;28;20047;-66
2021/12/13 03:52:52;;;;;;;29.88;14.45;;;9.90;99.90;;;;;;4958045;28;20043;-66
2021/12/13 03:55:20;;;;;;;27.95;13.60;;;9.90;99.90;;;;;;4954789;28;20045;-66
2021/12/13 03:57:55;;;;;;;30.20;13.65;;;9.80;99.90;;;;;;4960809;28;20385;-66
2021/12/13 04:00:23;;;;;;;;;;;9.80;99.90;;;;;;4935141;28;20042;-66
2021/12/13 04:02:51;;;;;;;26.88;13.35;;;9.70;99.90;;;;;;4960088;28;19922;-66
2021/12/13 04:05:20;;;;;;;27.25;12.25;;;9.70;99.90;;;;;;4967930;28;20046;-66
2021/12/13 04:07:51;;;;;;;27.38;13.05;;;9.70;99.90;;;;;;4957692;28;20110;-66
2021/12/13 04:10:22;;;;;;;24.20;12.45;;;9.70;99.90;;;;;;4970785;28;20518;-66
2021/12/13 04:12:52;;;;;;;23.35;11.90;;;9.70;99.90;;;;;;4960430;28;20031;-66
2021/12/13 04:15:33;;;;;;;34.42;13.02;;;9.70;99.90;;;;;;4951263;28;20061;-66
2021/12/13 04:18:28;;;;;;;24.00;11.10;;;9.70;99.90;;;;;;4959949;28;20039;-66
2021/12/13 04:21:02;;;;;;;23.75;11.80;;;9.70;99.90;;;;;;4969000;28;20187;-66
2021/12/13 04:23:29;;;;;;;23.65;11.48;;;9.60;99.90;;;;;;4961519;28;20118;-66
2021/12/13 04:25:58;;;;;;;25.73;11.10;;;9.60;99.90;;;;;;4949166;28;20089;-66
2021/12/13 04:28:32;;;;;;;19.20;10.88;;;9.60;99.90;;;;;;4961984;28;20077;-67
2021/12/13 04:31:03;;;;;;;27.88;11.15;;;9.60;99.90;;;;;;4968555;28;20109;-66
2021/12/13 04:33:33;;;;;;;21.77;11.85;;;9.50;99.90;;;;;;4958092;28;20043;-66
2021/12/13 04:36:05;;;;;;;30.70;13.00;;;9.50;99.90;;;;;;4950273;28;20051;-66
2021/12/13 04:38:48;;;;;;;31.35;13.10;;;9.50;99.90;;;;;;4941679;28;20081;-67
2021/12/13 04:41:22;;;;;;;22.15;12.48;;;9.50;99.90;;;;;;4966791;28;20039;-67
2021/12/13 04:43:53;;;;;;;25.95;13.00;;;9.50;99.90;;;;;;4956591;28;20118;-67
2021/12/13 04:46:21;;;;;;;23.50;14.00;;;9.50;99.90;;;;;;4968415;28;20046;-67
2021/12/13 04:48:53;;;;;;;24.10;13.13;;;9.50;99.90;;;;;;4946977;28;20043;-67
2021/12/13 04:51:22;;;;;;;23.73;13.60;;;9.50;99.90;;;;;;4966221;28;20097;-67
2021/12/13 04:53:50;;;;;;;24.45;13.55;;;9.50;99.90;;;;;;4948929;28;20055;-67
2021/12/13 04:56:22;;;;;;;27.92;13.20;;;9.50;99.90;;;;;;4963180;28;20035;-67
2021/12/13 04:58:53;;;;;;;23.67;13.55;;;9.40;99.90;;;;;;4963352;28;20039;-66
2021/12/13 05:01:20;;;;;;;26.42;13.80;;;9.40;99.90;;;;;;4959410;28;20043;-66
2021/12/13 05:03:53;;;;;;;26.50;14.13;;;9.50;99.90;;;;;;4967945;28;20114;-66
2021/12/13 05:06:23;;;;;;;23.05;13.68;;;9.50;99.90;;;;;;4960090;28;20073;-66
2021/12/13 05:08:54;;;;;;;29.20;14.10;;;9.50;99.90;;;;;;4967736;28;20049;-66
2021/12/13 05:11:20;;;;;;;25.45;14.15;;;9.50;99.90;;;;;;4963059;28;20050;-66
2021/12/13 05:13:57;;;;;;;21.98;13.88;;;9.50;99.90;;;;;;4963933;28;20046;-67
2021/12/13 05:16:45;;;;;;;20.95;12.05;;;9.50;99.90;;;;;;4959923;28;20114;-67
2021/12/13 05:19:13;;;;;;;26.52;12.57;;;9.50;99.90;;;;;;4965014;28;20157;-67
2021/12/13 05:21:50;;;;;;;19.27;11.48;;;9.50;99.90;;;;;;4961176;28;20046;-67
2021/12/13 05:24:20;;;;;;;22.33;12.68;;;9.50;99.90;;;;;;4963439;28;20039;-67
2021/12/13 05:27:07;;;;;;;23.77;11.68;;;9.50;99.90;;;;;;4959574;28;20066;-67
2021/12/13 05:29:49;;;;;;;19.17;10.77;;;9.40;99.90;;;;;;4966029;28;20137;-67
2021/12/13 05:32:36;;;;;;;20.45;10.88;;;9.40;99.90;;;;;;4959511;28;20038;-67
2021/12/13 05:35:26;;;;;;;15.05;10.38;;;9.40;99.90;;;;;;4963235;28;20062;-67
2021/12/13 05:37:55;;;;;;;14.77;10.32;;;9.40;99.90;;;;;;4958411;28;20039;-67
2021/12/13 05:40:29;;;;;;;17.30;10.07;;;9.40;99.90;;;;;;4952114;28;20491;-67
2021/12/13 05:42:58;;;;;;;17.35;10.00;;;9.40;99.90;;;;;;4942902;28;20519;-67
2021/12/13 05:45:39;;;;;;;21.85;10.13;;;9.40;99.90;;;;;;4965019;28;20043;-67
2021/12/13 05:48:31;;;;;;;13.65;8.48;;;9.40;99.90;;;;;;4943096;28;20047;-67
2021/12/13 05:50:59;;;;;;;14.77;9.07;;;9.40;99.90;;;;;;4915174;28;20141;-67
2021/12/13 05:53:44;;;;;;;16.25;9.40;;;9.40;99.90;;;;;;4941496;28;20034;-67
2021/12/13 05:56:15;;;;;;;;;;;9.40;99.90;;;;;;4950882;28;20055;-67
2021/12/13 05:58:55;;;;;;;15.90;9.77;;;9.40;99.90;;;;;;4941929;28;20370;-67
2021/12/13 06:01:24;;;;;;;17.38;9.88;;;9.40;99.90;;;;;;4934291;28;20396;-67
2021/12/13 06:04:11;;;;;;;17.95;10.02;;;9.40;99.90;;;;;;4937855;28;20062;-67
2021/12/13 06:06:47;;;;;;;22.02;10.75;;;9.40;99.90;;;;;;4964135;28;20051;-67
2021/12/13 06:09:41;;;;;;;18.23;11.75;;;9.40;99.90;;;;;;4945404;28;20438;-67
2021/12/13 06:12:10;;;;;;;18.42;11.48;;;9.40;99.90;;;;;;4935586;28;20047;-67
2021/12/13 06:14:36;;;;;;;22.50;12.73;;;9.40;99.90;;;;;;4937764;28;20459;-67
2021/12/13 06:17:05;;;;;;;19.38;12.82;;;9.40;99.90;;;;;;4962707;28;20035;-67
2021/12/13 06:19:40;;;;;;;21.30;12.57;;;9.40;99.90;;;;;;4936353;28;20128;-66
2021/12/13 06:22:23;;;;;;;20.23;14.35;;;9.40;99.90;;;;;;4961674;28;20038;-67
2021/12/13 06:24:51;;;;;;;21.60;13.55;;;9.40;99.90;;;;;;4959866;28;20130;-67
2021/12/13 06:27:24;;;;;;;24.20;15.13;;;9.30;99.90;;;;;;4958784;28;20034;-67
2021/12/13 06:30:23;;;;;;;24.08;15.07;;;9.30;99.90;;;;;;4951412;28;20058;-67
2021/12/13 06:32:53;;;;;;;23.98;15.82;;;9.40;99.90;;;;;;4941255;28;20059;-67
2021/12/13 06:35:42;;;;;;;25.55;15.35;;;9.30;99.90;;;;;;4960657;28;20117;-67
2021/12/13 06:38:20;;;;;;;24.33;15.85;;;9.30;99.90;;;;;;4953527;28;20086;-67
2021/12/13 06:40:58;;;;;;;22.50;16.92;;;9.30;99.90;;;;;;4959672;28;20517;-67
2021/12/13 06:43:52;;;;;;;25.98;16.83;;;9.30;99.90;;;;;;4957304;28;20066;-67
2021/12/13 06:46:24;;;;;;;26.73;17.90;;;9.30;99.90;;;;;;4939499;28;20062;-66
2021/12/13 06:49:11;;;;;;;27.70;17.33;;;9.30;99.90;;;;;;4952590;28;20571;-67
2021/12/13 06:51:50;;;;;;;27.42;17.70;;;9.30;99.90;;;;;;4953010;28;20047;-67
2021/12/13 06:54:24;;;;;;;25.60;19.25;;;9.30;99.90;;;;;;4952984;28;20069;-67
2021/12/13 06:57:21;;;;;;;28.58;20.05;;;9.30;99.90;;;;;;4960703;28;20070;-66
2021/12/13 06:59:55;;;;;;;26.63;19.10;;;9.30;99.90;;;;;;4952046;28;20055;-67
2021/12/13 07:02:26;;;;;;;31.98;21.13;;;9.30;99.90;;;;;;4948337;28;20035;-67
2021/12/13 07:05:28;;;;;;;31.83;21.65;;;9.30;99.90;;;;;;4954274;28;20043;-67
2021/12/13 07:08:07;;;;;;;31.20;21.40;;;9.30;99.90;;;;;;4962734;28;20467;-67
2021/12/13 07:10:51;;;;;;;30.50;21.80;;;9.30;99.90;;;;;;4958957;28;20039;-67
2021/12/13 07:13:20;;;;;;;35.22;23.83;;;9.40;99.90;;;;;;4959496;28;20125;-67
2021/12/13 07:15:57;;;;;;;32.47;22.65;;;9.30;99.90;;;;;;4939980;28;20064;-67
2021/12/13 07:18:30;;;;;;;36.25;24.05;;;9.30;99.90;;;;;;4968755;28;20111;-67
2021/12/13 07:21:09;;;;;;;38.60;24.38;;;9.30;99.90;;;;;;4957015;28;20109;-67
2021/12/13 07:24:10;;;;;;;39.47;24.95;;;9.30;99.90;;;;;;4962937;28;20113;-67
2021/12/13 07:26:51;;;;;;;36.05;25.70;;;9.30;99.90;;;;;;4940741;28;20063;-67
2021/12/13 07:29:21;;;;;;;41.78;26.40;;;9.40;99.90;;;;;;4962559;28;20104;-67
2021/12/13 07:32:10;;;;;;;41.33;26.08;;;9.20;99.90;;;;;;4935516;28;20054;-67
2021/12/13 07:35:01;;;;;;;39.92;26.90;;;9.30;99.90;;;;;;4963498;28;20542;-67
2021/12/13 07:37:50;;;;;;;37.65;25.77;;;9.30;99.90;;;;;;4956709;28;20039;-67
2021/12/13 07:40:29;;;;;;;38.83;26.55;;;9.20;99.90;;;;;;4961647;28;20040;-67
2021/12/13 07:43:12;;;;;;;40.17;27.80;;;9.30;99.90;;;;;;4960105;28;20117;-67
2021/12/13 07:45:38;;;;;;;37.10;26.75;;;9.30;99.90;;;;;;4945153;28;20047;-67
2021/12/13 07:48:08;;;;;;;39.17;30.52;;;9.30;99.90;;;;;;4959099;28;20469;-67
2021/12/13 07:50:35;;;;;;;41.38;30.27;;;9.30;99.90;;;;;;4963949;28;20118;-67
2021/12/13 07:53:04;;;;;;;41.03;29.52;;;9.30;99.90;;;;;;4934130;28;20194;-67
2021/12/13 07:55:31;;;;;;;42.17;30.55;;;9.30;99.90;;;;;;4965428;28;20047;-67
2021/12/13 07:58:01;;;;;;;40.55;29.23;;;9.40;99.90;;;;;;4954127;28;20031;-67
2021/12/13 08:00:33;;;;;;;45.08;30.60;;;9.30;99.90;;;;;;4962523;28;20423;-67
2021/12/13 08:03:04;;;;;;;42.72;30.63;;;9.30;99.90;;;;;;4940053;28;20134;-67
2021/12/13 08:05:37;;;;;;;44.63;30.02;;;9.30;99.90;;;;;;4958297;28;20149;-67
2021/12/13 08:08:03;;;;;;;44.75;31.15;;;9.30;99.90;;;;;;4953890;28;20035;-67
2021/12/13 08:10:35;;;;;;;41.28;31.20;;;9.40;99.90;;;;;;4958998;28;20043;-67
2021/12/13 08:13:09;;;;;;;38.38;29.55;;;9.40;99.90;;;;;;4956715;28;20171;-67
2021/12/13 08:15:42;;;;;;;38.17;29.83;;;9.30;99.90;;;;;;4942071;28;20065;-67
2021/12/13 08:18:20;;;;;;;42.38;30.30;;;9.30;99.90;;;;;;4953838;28;20118;-67
2021/12/13 08:20:54;;;;;;;40.90;30.92;;;9.40;99.90;;;;;;4958994;28;20057;-67
2021/12/13 08:23:39;;;;;;;40.22;29.38;;;9.40;99.90;;;;;;4955765;28;20054;-67
2021/12/13 08:26:08;;;;;;;44.45;30.58;;;9.40;99.90;;;;;;4939611;28;20027;-67
2021/12/13 08:28:46;;;;;;;40.42;29.52;;;9.40;99.90;;;;;;4958082;28;20129;-67
2021/12/13 08:31:21;;;;;;;41.95;30.10;;;9.40;99.90;;;;;;4958112;28;20031;-67
2021/12/13 08:33:52;;;;;;;33.75;27.67;;;9.40;99.90;;;;;;4956872;28;20050;-67
2021/12/13 08:36:45;;;;;;;35.63;28.33;;;9.40;99.90;;;;;;4959071;28;20519;-67
2021/12/13 08:39:32;;;;;;;35.28;27.98;;;9.40;99.90;;;;;;4944289;28;20454;-67
2021/12/13 08:42:17;;;;;;;34.03;27.20;;;9.40;99.90;;;;;;4961402;28;20081;-67
2021/12/13 08:44:53;;;;;;;34.42;27.08;;;9.40;99.90;;;;;;4962101;28;20050;-67
2021/12/13 08:47:25;;;;;;;35.03;26.05;;;9.40;99.90;;;;;;4942379;28;20636;-67
2021/12/13 08:50:00;;;;;;;39.35;27.23;;;9.40;99.90;;;;;;4941433;28;20455;-67
2021/12/13 08:52:33;;;;;;;37.22;26.90;;;9.40;99.90;;;;;;4959901;28;20424;-67
2021/12/13 08:55:11;;;;;;;40.13;29.33;;;9.40;99.90;;;;;;4954229;28;20046;-67
2021/12/13 08:57:52;;;;;;;33.25;25.58;;;9.40;99.90;;;;;;4962859;28;20042;-67
2021/12/13 09:00:59;;;;;;;32.08;24.90;;;9.40;99.90;;;;;;4957427;28;20181;-66
2021/12/13 09:03:35;;;;;;;31.63;25.52;;;9.40;99.90;;;;;;4961952;28;20027;-66
2021/12/13 09:06:13;;;;;;;29.33;24.73;;;9.40;99.90;;;;;;4960769;28;20376;-67
2021/12/13 09:08:43;;;;;;;36.38;24.40;;;9.40;99.90;;;;;;4960166;28;20384;-67
2021/12/13 09:11:32;;;;;;;32.83;26.00;;;9.40;99.90;;;;;;4941332;28;20452;-67
2021/12/13 09:14:10;;;;;;;33.17;23.58;;;9.40;99.90;;;;;;4959586;28;20035;-67
2021/12/13 09:17:10;;;;;;;33.30;25.13;;;9.40;99.90;;;;;;4970662;28;20046;-67
2021/12/13 09:19:48;;;;;;;32.95;24.33;;;9.50;99.90;;;;;;4953390;28;20063;-67
2021/12/13 09:22:18;;;;;;;33.70;24.45;;;9.40;99.90;;;;;;4959428;28;20054;-67
2021/12/13 09:24:46;;;;;;;32.95;23.73;;;9.50;99.90;;;;;;4957753;28;20101;-67
2021/12/13 09:27:36;;;;;;;30.45;23.85;;;9.50;99.90;;;;;;4962713;28;20043;-67
2021/12/13 09:30:28;;;;;;;27.92;22.10;;;9.50;99.90;;;;;;4943236;28;20115;-67
2021/12/13 09:33:12;;;;;;;28.08;21.17;;;9.50;99.90;;;;;;4958375;28;20050;-67
2021/12/13 09:35:44;;;;;;;25.80;21.55;;;9.60;99.90;;;;;;4941992;28;20039;-67
2021/12/13 09:38:34;;;;;;;29.23;21.30;;;9.60;99.90;;;;;;4959579;28;20065;-67
2021/12/13 09:41:31;;;;;;;29.25;22.38;;;9.60;99.90;;;;;;4954830;28;20499;-67
2021/12/13 09:44:08;;;;;;;29.35;21.55;;;9.70;99.90;;;;;;4944875;28;20050;-67
2021/12/13 09:46:37;;;;;;;29.38;23.05;;;9.70;99.90;;;;;;4955844;28;20480;-67
2021/12/13 09:49:20;;;;;;;29.70;22.65;;;9.70;99.90;;;;;;4959779;28;20336;-67
2021/12/13 09:51:55;;;;;;;32.50;23.13;;;9.70;99.90;;;;;;4958686;28;20050;-67
2021/12/13 09:54:26;;;;;;;28.92;22.30;;;9.70;99.90;;;;;;4967044;28;20598;-67
2021/12/13 09:56:52;;;;;;;32.05;22.95;;;9.70;99.90;;;;;;4937004;28;20134;-67
2021/12/13 09:59:29;;;;;;;29.02;22.35;;;9.70;99.90;;;;;;4959897;28;20122;-67
2021/12/13 10:01:58;;;;;;;29.02;22.85;;;9.80;99.90;;;;;;4956833;28;20133;-67
2021/12/13 10:04:44;;;;;;;31.05;21.75;;;9.80;99.90;;;;;;4961940;28;20134;-67
2021/12/13 10:07:19;;;;;;;31.23;22.77;;;9.80;99.90;;;;;;4958875;28;20050;-67
2021/12/13 10:09:52;;;;;;;31.55;22.40;;;9.80;99.90;;;;;;4962205;28;20079;-67
2021/12/13 10:12:47;;;;;;;27.92;20.92;;;9.80;99.90;;;;;;4937072;28;20058;-67
2021/12/13 10:15:47;;;;;;;24.52;20.00;;;9.80;99.90;;;;;;4957182;28;20523;-67
2021/12/13 10:18:17;;;;;;;26.90;20.63;;;9.80;99.90;;;;;;4951964;28;20075;-67
2021/12/13 10:20:50;;;;;;;26.70;20.73;;;9.80;99.90;;;;;;4959811;28;20422;-67
2021/12/13 10:23:20;;;;;;;28.17;21.73;;;9.80;99.90;;;;;;4940522;28;20529;-67
2021/12/13 10:25:49;;;;;;;25.88;20.13;;;9.80;99.90;;;;;;4957443;28;20043;-66
2021/12/13 10:28:20;;;;;;;27.48;21.38;;;9.80;99.90;;;;;;4957756;28;20786;-66
2021/12/13 10:30:51;;;;;;;26.55;19.95;;;9.90;99.90;;;;;;4962166;28;20039;-66
2021/12/13 10:33:20;;;;;;;28.08;19.95;;;9.90;99.90;;;;;;4956971;28;20134;-66
2021/12/13 10:35:47;;;;;;;26.23;20.02;;;9.90;99.90;;;;;;4956405;28;20578;-66
2021/12/13 10:38:21;;;;;;;29.08;19.40;;;9.90;99.90;;;;;;4957296;28;20125;-66
2021/12/13 10:40:55;;;;;;;26.88;19.67;;;9.90;99.90;;;;;;4959879;28;20404;-66
2021/12/13 10:43:28;;;;;;;26.83;18.33;;;9.90;99.90;;;;;;4952730;28;20646;-66
2021/12/13 10:46:13;;;;;;;24.15;18.63;;;9.90;99.90;;;;;;4961541;28;20042;-66
2021/12/13 10:48:45;;;;;;;24.92;18.83;;;9.90;99.90;;;;;;4960437;28;20035;-66
2021/12/13 10:51:19;;;;;;;25.17;18.45;;;10.00;99.90;;;;;;4962902;28;20038;-66
2021/12/13 10:53:48;;;;;;;25.77;18.15;;;10.00;99.90;;;;;;4957984;28;20484;-66
2021/12/13 10:56:22;;;;;;;24.95;17.58;;;10.00;99.90;;;;;;4964744;28;20118;-66
2021/12/13 10:58:50;;;;;;;23.75;16.83;;;10.00;99.90;;;;;;4954479;28;20078;-66
2021/12/13 11:01:21;;;;;;;23.58;17.13;;;10.00;99.90;;;;;;4967810;28;20050;-66
2021/12/13 11:03:48;;;;;;;22.85;16.98;;;10.00;99.90;;;;;;4962638;28;20046;-66
2021/12/13 11:06:16;;;;;;;19.42;15.88;;;10.00;99.90;;;;;;4964123;28;20061;-67
2021/12/13 11:08:43;;;;;;;21.02;16.30;;;10.10;99.90;;;;;;4943540;28;20193;-67
2021/12/13 11:11:32;;;;;;;22.35;16.27;;;10.10;99.90;;;;;;4959629;28;20459;-66
2021/12/13 11:14:03;;;;;;;23.10;16.63;;;10.10;99.90;;;;;;4959674;28;20079;-66
2021/12/13 11:16:37;;;;;;;21.95;17.05;;;10.10;99.90;;;;;;4965568;28;20054;-66
2021/12/13 11:19:06;;;;;;;24.17;16.77;;;10.10;99.90;;;;;;4956491;28;20034;-66
2021/12/13 11:21:35;;;;;;;24.67;16.60;;;10.10;99.90;;;;;;4960295;28;20066;-66
2021/12/13 11:24:02;;;;;;;22.67;16.73;;;10.10;99.90;;;;;;4963845;28;20039;-67
2021/12/13 11:26:34;;;;;;;21.15;16.90;;;10.10;99.90;;;;;;4963205;28;20118;-67
2021/12/13 11:29:02;;;;;;;21.17;16.70;;;10.10;99.90;;;;;;4964996;28;20047;-66
2021/12/13 11:31:31;;;;;;;23.70;16.73;;;10.20;99.90;;;;;;4958544;28;20074;-66
2021/12/13 11:34:03;;;;;;;24.38;17.35;;;10.10;99.90;;;;;;4962403;28;20039;-67
2021/12/13 11:36:49;;;;;;;21.73;16.63;;;10.10;99.90;;;;;;4955278;28;20047;-67
2021/12/13 11:39:42;;;;;;;23.42;15.68;;;10.10;99.90;;;;;;4966910;28;20042;-67
2021/12/13 11:42:45;;;;;;;21.20;15.90;;;10.10;99.90;;;;;;4959604;28;20635;-67
2021/12/13 11:45:49;;;;;;;22.60;15.82;;;10.20;99.90;;;;;;4956725;28;20062;-66
2021/12/13 11:48:33;;;;;;;24.13;15.95;;;10.20;99.90;;;;;;4945063;28;20057;-66
2021/12/13 11:51:17;;;;;;;22.00;16.00;;;10.20;99.90;;;;;;4959300;28;20392;-66
2021/12/13 11:53:49;;;;;;;20.02;15.55;;;10.20;99.90;;;;;;4966076;28;20054;-67
2021/12/13 11:56:54;;;;;;;22.10;16.17;;;10.20;99.90;;;;;;4936026;28;20117;-67
2021/12/13 11:59:49;;;;;;;22.08;16.10;;;10.20;99.90;;;;;;4960649;28;20480;-67
2021/12/13 12:02:45;;;;;;;19.02;16.13;;;10.20;99.90;;;;;;4958625;28;20070;-67
2021/12/13 12:05:44;;;;;;;22.33;16.08;;;10.20;99.90;;;;;;4962909;28;20038;-67
2021/12/13 12:08:55;;;;;;;20.60;15.65;;;10.20;99.90;;;;;;4947188;28;20078;-67
2021/12/13 12:11:46;;;;;;;19.35;15.13;;;10.20;99.90;;;;;;4952564;28;20032;-67
2021/12/13 12:14:12;;;;;;;23.10;16.65;;;10.20;99.90;;;;;;4940940;28;20088;-67
2021/12/13 12:16:44;;;;;;;21.88;16.33;;;10.20;99.90;;;;;;4963244;28;20475;-67
2021/12/13 12:19:17;;;;;;;18.50;15.02;;;10.20;99.90;;;;;;4948885;28;20062;-67
2021/12/13 12:21:58;;;;;;;21.33;15.68;;;10.20;99.90;;;;;;4952203;28;20043;-67
2021/12/13 12:24:38;;;;;;;22.10;15.27;;;10.20;99.90;;;;;;4947696;28;20058;-67
2021/12/13 12:27:06;;;;;;;22.08;15.85;;;10.20;99.90;;;;;;4960639;28;20043;-67
2021/12/13 12:29:44;;;;;;;20.70;15.82;;;10.20;99.90;;;;;;4963635;28;20090;-67
2021/12/13 12:32:26;;;;;;;20.20;15.27;;;10.20;99.90;;;;;;4953795;28;20392;-67
2021/12/13 12:34:57;;;;;;;22.40;16.02;;;10.20;99.90;;;;;;4956763;28;20038;-67
2021/12/13 12:37:36;;;;;;;20.75;16.02;;;10.20;99.90;;;;;;4959655;28;20065;-67
2021/12/13 12:40:08;;;;;;;20.23;15.35;;;10.20;99.90;;;;;;4943944;28;20051;-67
2021/12/13 12:42:43;;;;;;;19.05;15.60;;;10.20;99.90;;;;;;4959723;28;20316;-67
2021/12/13 12:45:24;;;;;;;21.98;15.70;;;10.20;99.90;;;;;;4963416;28;20041;-66
2021/12/13 12:47:49;;;;;;;22.98;15.55;;;10.20;99.90;;;;;;4955041;28;20059;-67
2021/12/13 12:50:26;;;;;;;19.45;15.43;;;10.30;99.90;;;;;;4965448;28;20042;-67
2021/12/13 12:52:55;;;;;;;22.67;14.98;;;10.30;99.90;;;;;;4938896;28;20126;-67
2021/12/13 12:55:25;;;;;;;18.83;14.43;;;10.40;99.90;;;;;;4960528;28;20118;-67
2021/12/13 12:57:51;;;;;;;17.58;14.05;;;10.40;99.90;;;;;;4956101;28;20380;-67
2021/12/13 13:00:26;;;;;;;19.83;15.50;;;10.50;99.90;;;;;;4967637;28;20519;-67
2021/12/13 13:02:52;;;;;;;18.42;14.90;;;10.50;99.90;;;;;;4954813;28;20633;-67
2021/12/13 13:05:20;;;;;;;18.52;14.48;;;10.50;99.90;;;;;;4958457;28;20070;-67
2021/12/13 13:07:51;;;;;;;18.60;14.57;;;10.50;99.90;;;;;;4966634;28;20117;-67
2021/12/13 13:10:25;;;;;;;19.67;15.13;;;10.60;99.90;;;;;;4944913;28;20089;-67
2021/12/13 13:13:02;;;;;;;21.13;15.30;;;10.60;99.90;;;;;;4959239;28;20035;-67
2021/12/13 13:15:36;;;;;;;19.38;15.13;;;10.60;99.90;;;;;;4935080;28;20039;-67
2021/12/13 13:18:13;;;;;;;21.17;15.15;;;10.70;99.90;;;;;;4943738;28;20411;-67
2021/12/13 13:20:48;;;;;;;20.83;14.93;;;10.70;99.90;;;;;;4955771;28;20051;-67
2021/12/13 13:23:14;;;;;;;19.70;14.73;;;10.70;99.90;;;;;;4947416;28;20039;-67
2021/12/13 13:25:58;;;;;;;20.63;14.98;;;10.70;99.90;;;;;;4953092;28;20039;-67
2021/12/13 13:28:28;;;;;;;19.27;13.98;;;10.70;99.90;;;;;;4962588;28;20051;-67